createdAt,value
2022-08-22T00:01:52.387Z,72.90
2022-08-22T00:02:48.497Z,63.20
2022-08-22T00:03:07.363Z,68.60
2022-08-22T00:03:11.175Z,71.50
2022-08-22T00:04:29.581Z,72.80
2022-08-22T00:07:08.288Z,72.80
2022-08-22T00:09:43.598Z,72.30
2022-08-22T00:12:20.103Z,73.10
2022-08-22T00:14:59.797Z,72.30
2022-08-22T00:17:40.857Z,73.30
2022-08-22T00:20:15.722Z,73.90
2022-08-22T00:22:51.723Z,73.10
2022-08-22T00:25:38.119Z,72.30
2022-08-22T00:28:11.504Z,72.70
2022-08-22T00:30:49.214Z,74.90
2022-08-22T00:33:25.083Z,73.40
2022-08-22T00:36:00.804Z,74.30
2022-08-22T00:38:33.259Z,73.30
2022-08-22T00:41:05.652Z,73.30
2022-08-22T00:43:54.215Z,74.00
2022-08-22T00:46:45.353Z,74.10
2022-08-22T00:49:38.795Z,74.00
2022-08-22T00:52:33.448Z,73.90
2022-08-22T00:55:18.543Z,74.10
2022-08-22T00:58:11.325Z,74.00
2022-08-22T01:00:44.895Z,74.00
2022-08-22T01:03:51.335Z,73.10
2022-08-22T01:06:29.650Z,73.20
2022-08-22T01:09:06.184Z,74.10
2022-08-22T01:11:57.656Z,74.20
2022-08-22T01:14:38.747Z,73.50
2022-08-22T01:17:33.683Z,73.50
2022-08-22T01:20:40.317Z,74.00
2022-08-22T01:23:47.491Z,75.20
2022-08-22T01:26:54.085Z,73.90
2022-08-22T01:30:01.516Z,75.20
2022-08-22T01:33:02.223Z,74.00
2022-08-22T01:36:11.563Z,75.00
2022-08-22T01:39:18.838Z,74.00
2022-08-22T01:42:15.237Z,75.10
2022-08-22T01:45:24.050Z,74.00
2022-08-22T01:47:56.666Z,74.00
2022-08-22T01:50:31.424Z,74.30
2022-08-22T01:53:03.444Z,74.30
2022-08-22T01:55:36.851Z,74.40
2022-08-22T01:58:14.348Z,74.50
2022-08-22T02:01:08.209Z,74.60
2022-08-22T02:03:41.211Z,74.60
2022-08-22T02:06:15.831Z,76.00
2022-08-22T02:08:49.788Z,75.00
2022-08-22T02:11:37.855Z,75.80
2022-08-22T02:14:18.203Z,75.10
2022-08-22T02:16:51.088Z,74.90
2022-08-22T02:19:37.842Z,75.60
2022-08-22T02:22:21.375Z,74.70
2022-08-22T02:24:59.735Z,75.40
2022-08-22T02:27:39.702Z,75.30
2022-08-22T02:30:11.138Z,75.40
2022-08-22T02:32:52.559Z,74.50
2022-08-22T02:35:28.629Z,74.50
2022-08-22T02:38:07.265Z,74.60
2022-08-22T02:40:38.843Z,74.80
2022-08-22T02:43:19.623Z,74.80
2022-08-22T02:45:54.353Z,74.90
2022-08-22T02:48:35.311Z,75.70
2022-08-22T02:51:19.576Z,75.00
2022-08-22T02:54:01.333Z,75.70
2022-08-22T02:56:34.703Z,75.00
2022-08-22T02:59:23.708Z,75.10
2022-08-22T03:01:52.091Z,75.40
2022-08-22T03:04:46.820Z,75.20
2022-08-22T03:07:26.216Z,75.00
2022-08-22T03:10:02.598Z,75.60
2022-08-22T03:12:35.915Z,75.60
2022-08-22T03:15:14.336Z,74.90
2022-08-22T03:17:51.612Z,75.60
2022-08-22T03:20:36.399Z,74.90
2022-08-22T03:23:16.547Z,74.90
2022-08-22T03:25:51.722Z,74.90
2022-08-22T03:28:24.500Z,79.40
2022-08-22T03:31:02.199Z,75.40
2022-08-22T03:33:31.672Z,75.00
2022-08-22T03:36:22.970Z,75.00
2022-08-22T03:39:11.221Z,75.90
2022-08-22T03:42:10.260Z,75.90
2022-08-22T03:45:07.007Z,75.80
2022-08-22T03:48:08.656Z,75.80
2022-08-22T03:51:03.588Z,76.40
2022-08-22T03:53:52.102Z,76.30
2022-08-22T03:57:00.587Z,76.10
2022-08-22T03:59:55.871Z,75.70
2022-08-22T04:02:54.870Z,75.50
2022-08-22T04:06:18.729Z,75.50
2022-08-22T04:09:24.120Z,75.20
2022-08-22T04:12:24.277Z,75.10
2022-08-22T04:15:28.043Z,75.00
2022-08-22T04:18:22.931Z,75.00
2022-08-22T04:21:36.363Z,75.00
2022-08-22T04:24:30.630Z,75.90
2022-08-22T04:27:03.677Z,75.00
2022-08-22T04:29:36.378Z,75.10
2022-08-22T04:32:14.115Z,75.10
2022-08-22T04:34:46.799Z,75.30
2022-08-22T04:37:20.919Z,75.40
2022-08-22T04:39:54.460Z,75.40
2022-08-22T04:42:33.083Z,75.40
2022-08-22T04:45:06.738Z,76.60
2022-08-22T04:47:39.893Z,76.60
2022-08-22T04:50:16.560Z,76.50
2022-08-22T04:53:02.327Z,76.20
2022-08-22T04:55:40.683Z,77.10
2022-08-22T04:58:25.367Z,76.00
2022-08-22T05:01:10.283Z,76.90
2022-08-22T05:03:44.885Z,76.00
2022-08-22T05:06:18.948Z,76.00
2022-08-22T05:08:53.852Z,76.10
2022-08-22T05:11:24.848Z,76.00
2022-08-22T05:13:57.696Z,76.70
2022-08-22T05:16:29.406Z,76.20
2022-08-22T05:19:01.679Z,76.20
2022-08-22T05:21:33.463Z,76.20
2022-08-22T05:24:06.238Z,76.90
2022-08-22T05:26:39.477Z,76.50
2022-08-22T05:29:10.419Z,76.50
2022-08-22T05:31:42.873Z,76.40
2022-08-22T05:34:15.708Z,76.60
2022-08-22T05:36:48.896Z,76.60
2022-08-22T05:39:20.731Z,76.70
2022-08-22T05:41:51.359Z,76.90
2022-08-22T05:44:22.419Z,77.00
2022-08-22T05:46:56.928Z,77.10
2022-08-22T05:49:33.263Z,77.10
2022-08-22T05:52:09.660Z,77.00
2022-08-22T05:54:47.036Z,77.00
2022-08-22T05:57:24.546Z,77.00
2022-08-22T06:00:00.614Z,77.80
2022-08-22T06:02:41.379Z,77.20
2022-08-22T06:05:12.141Z,77.00
2022-08-22T06:07:45.619Z,77.30
2022-08-22T06:10:22.399Z,77.30
2022-08-22T06:12:57.552Z,77.40
2022-08-22T06:15:35.195Z,77.40
2022-08-22T06:18:07.806Z,77.40
2022-08-22T06:20:40.508Z,77.50
2022-08-22T06:23:09.748Z,77.50
2022-08-22T06:25:41.257Z,77.50
2022-08-22T06:28:15.082Z,77.60
2022-08-22T06:30:46.580Z,77.60
2022-08-22T06:33:22.783Z,77.70
2022-08-22T06:36:11.127Z,77.80
2022-08-22T06:38:54.984Z,77.70
2022-08-22T06:41:26.834Z,78.70
2022-08-22T06:43:57.362Z,77.80
2022-08-22T06:46:30.874Z,78.10
2022-08-22T06:49:01.154Z,78.10
2022-08-22T06:51:30.192Z,78.20
2022-08-22T06:54:02.305Z,78.20
2022-08-22T06:56:36.664Z,78.30
2022-08-22T06:59:10.308Z,79.00
2022-08-22T07:01:47.477Z,78.40
2022-08-22T07:04:15.777Z,78.40
2022-08-22T07:06:47.276Z,78.70
2022-08-22T07:09:23.798Z,78.40
2022-08-22T07:11:52.835Z,79.20
2022-08-22T07:14:29.770Z,79.10
2022-08-22T07:17:00.375Z,79.40
2022-08-22T07:19:30.683Z,78.70
2022-08-22T07:21:59.719Z,78.70
2022-08-22T07:24:32.406Z,78.80
2022-08-22T07:27:12.604Z,79.30
2022-08-22T07:29:50.277Z,78.70
2022-08-22T07:32:21.475Z,79.50
2022-08-22T07:35:10.122Z,79.00
2022-08-22T07:38:02.779Z,79.70
2022-08-22T07:40:37.195Z,79.00
2022-08-22T07:43:15.347Z,79.60
2022-08-22T07:45:52.088Z,79.80
2022-08-22T07:48:26.613Z,79.30
2022-08-22T07:51:08.163Z,79.30
2022-08-22T07:53:41.511Z,79.30
2022-08-22T07:56:15.587Z,78.90
2022-08-22T07:58:46.936Z,78.90
2022-08-22T08:01:21.066Z,79.40
2022-08-22T08:03:54.237Z,78.70
2022-08-22T08:06:24.139Z,79.70
2022-08-22T08:08:53.811Z,79.00
2022-08-22T08:11:23.826Z,78.00
2022-08-22T08:13:57.808Z,78.30
2022-08-22T08:16:31.999Z,78.30
2022-08-22T08:19:02.868Z,79.70
2022-08-22T08:21:34.636Z,77.80
2022-08-22T08:24:03.344Z,77.40
2022-08-22T08:26:35.121Z,77.50
2022-08-22T08:29:03.667Z,77.10
2022-08-22T08:31:38.067Z,76.30
2022-08-22T08:34:18.899Z,76.70
2022-08-22T08:36:52.272Z,78.20
2022-08-22T08:39:24.885Z,76.40
2022-08-22T08:42:20.028Z,76.10
2022-08-22T08:45:19.107Z,75.50
2022-08-22T08:48:08.682Z,75.20
2022-08-22T08:50:51.316Z,75.20
2022-08-22T08:53:50.884Z,77.20
2022-08-22T08:56:30.890Z,74.70
2022-08-22T08:59:09.939Z,74.80
2022-08-22T09:02:13.668Z,76.30
2022-08-22T09:05:13.205Z,74.20
2022-08-22T09:07:56.799Z,74.50
2022-08-22T09:10:55.106Z,74.00
2022-08-22T09:13:45.806Z,74.40
2022-08-22T09:16:46.192Z,72.90
2022-08-22T09:19:40.513Z,72.20
2022-08-22T09:22:50.760Z,72.10
2022-08-22T09:25:27.189Z,73.90
2022-08-22T09:28:15.211Z,70.30
2022-08-22T09:31:16.564Z,73.00
2022-08-22T09:33:55.557Z,70.50
2022-08-22T09:36:30.166Z,69.70
2022-08-22T09:39:14.450Z,68.30
2022-08-22T09:41:52.143Z,67.30
2022-08-22T09:44:33.831Z,66.90
2022-08-22T09:47:24.618Z,69.20
2022-08-22T09:50:04.847Z,66.80
2022-08-22T09:52:56.598Z,66.80
2022-08-22T09:55:40.544Z,66.00
2022-08-22T09:58:19.071Z,65.50
2022-08-22T10:00:56.233Z,65.50
2022-08-22T10:03:33.713Z,65.30
2022-08-22T10:06:05.485Z,64.80
2022-08-22T10:08:40.203Z,67.20
2022-08-22T10:11:20.416Z,63.50
2022-08-22T10:14:00.633Z,65.20
2022-08-22T10:16:56.256Z,66.70
2022-08-22T10:19:29.475Z,63.30
2022-08-22T10:22:29.807Z,63.50
2022-08-22T10:25:28.506Z,61.20
2022-08-22T10:28:17.507Z,60.60
2022-08-22T10:30:59.380Z,60.20
2022-08-22T10:33:32.723Z,60.70
2022-08-22T10:36:07.826Z,61.80
2022-08-22T10:38:46.809Z,60.40
2022-08-22T10:41:28.021Z,60.70
2022-08-22T10:44:04.460Z,60.10
2022-08-22T10:46:39.593Z,61.50
2022-08-22T10:49:19.527Z,60.80
2022-08-22T10:51:53.667Z,60.20
2022-08-22T10:54:38.137Z,59.40
2022-08-22T10:57:20.696Z,58.80
2022-08-22T10:59:58.442Z,58.00
2022-08-22T11:02:44.878Z,57.90
2022-08-22T11:05:33.609Z,58.00
2022-08-22T11:08:20.691Z,57.90
2022-08-22T11:11:06.197Z,56.40
2022-08-22T11:13:42.299Z,56.70
2022-08-22T11:16:26.076Z,56.90
2022-08-22T11:19:14.956Z,57.60
2022-08-22T11:21:52.224Z,56.60
2022-08-22T11:25:04.235Z,55.30
2022-08-22T11:27:41.028Z,55.30
2022-08-22T11:30:18.483Z,54.70
2022-08-22T11:33:15.993Z,53.20
2022-08-22T11:35:49.527Z,53.30
2022-08-22T11:38:32.669Z,53.40
2022-08-22T11:41:05.410Z,53.40
2022-08-22T11:43:52.107Z,54.00
2022-08-22T11:46:25.714Z,52.90
2022-08-22T11:49:27.227Z,54.30
2022-08-22T11:52:13.051Z,53.50
2022-08-22T11:54:57.412Z,53.80
2022-08-22T11:57:31.870Z,52.10
2022-08-22T12:00:13.832Z,51.30
2022-08-22T12:02:54.866Z,51.70
2022-08-22T12:05:28.117Z,52.40
2022-08-22T12:08:04.816Z,51.60
2022-08-22T12:10:36.351Z,51.80
2022-08-22T12:13:09.100Z,51.60
2022-08-22T12:15:45.065Z,51.80
2022-08-22T12:18:43.674Z,51.90
2022-08-22T12:21:47.639Z,52.40
2022-08-22T12:24:38.386Z,52.40
2022-08-22T12:27:29.502Z,51.30
2022-08-22T12:30:14.606Z,51.90
2022-08-22T12:33:23.007Z,51.00
2022-08-22T12:36:17.826Z,50.80
2022-08-22T12:39:11.152Z,50.60
2022-08-22T12:42:05.206Z,51.00
2022-08-22T12:44:46.099Z,49.50
2022-08-22T12:47:31.977Z,48.50
2022-08-22T12:50:21.551Z,48.40
2022-08-22T12:53:06.038Z,49.10
2022-08-22T12:55:49.738Z,48.50
2022-08-22T12:58:33.982Z,49.70
2022-08-22T13:01:07.640Z,49.20
2022-08-22T13:03:42.967Z,49.10
2022-08-22T13:06:48.625Z,48.60
2022-08-22T13:09:28.891Z,48.70
2022-08-22T13:12:06.719Z,48.70
2022-08-22T13:14:36.182Z,48.80
2022-08-22T13:17:23.733Z,48.10
2022-08-22T13:20:03.067Z,47.50
2022-08-22T13:22:35.191Z,46.60
2022-08-22T13:25:08.686Z,48.80
2022-08-22T13:27:50.608Z,47.70
2022-08-22T13:30:21.799Z,47.40
2022-08-22T13:32:52.655Z,47.80
2022-08-22T13:35:24.834Z,47.40
2022-08-22T13:37:59.221Z,47.10
2022-08-22T13:40:31.524Z,47.50
2022-08-22T13:43:06.344Z,47.50
2022-08-22T13:45:36.849Z,46.90
2022-08-22T13:48:11.575Z,46.10
2022-08-22T13:50:57.869Z,47.40
2022-08-22T13:53:34.856Z,46.10
2022-08-22T13:56:07.479Z,46.00
2022-08-22T13:58:47.529Z,46.10
2022-08-22T14:01:40.516Z,44.30
2022-08-22T14:04:32.187Z,45.30
2022-08-22T14:07:24.128Z,45.30
2022-08-22T14:09:57.316Z,45.40
2022-08-22T14:12:33.589Z,45.10
2022-08-22T14:15:26.717Z,44.80
2022-08-22T14:18:09.291Z,44.30
2022-08-22T14:20:41.267Z,44.70
2022-08-22T14:23:14.592Z,44.10
2022-08-22T14:25:44.087Z,43.90
2022-08-22T14:28:27.594Z,44.30
2022-08-22T14:31:03.195Z,44.60
2022-08-22T14:33:34.892Z,42.80
2022-08-22T14:36:12.011Z,44.20
2022-08-22T14:38:46.508Z,41.30
2022-08-22T14:41:26.181Z,43.70
2022-08-22T14:43:59.370Z,41.40
2022-08-22T14:46:35.596Z,44.00
2022-08-22T14:49:14.596Z,41.60
2022-08-22T14:51:50.917Z,41.40
2022-08-22T14:54:22.052Z,41.00
2022-08-22T14:56:52.808Z,42.60
2022-08-22T14:59:33.186Z,40.80
2022-08-22T15:02:07.335Z,40.30
2022-08-22T15:04:38.511Z,41.00
2022-08-22T15:07:07.697Z,40.60
2022-08-22T15:09:42.764Z,40.90
2022-08-22T15:12:24.706Z,39.90
2022-08-22T15:14:55.651Z,40.50
2022-08-22T15:17:44.142Z,39.80
2022-08-22T15:20:27.730Z,39.30
2022-08-22T15:22:59.446Z,39.30
2022-08-22T15:25:31.724Z,40.30
2022-08-22T15:28:05.734Z,38.40
2022-08-22T15:30:44.526Z,38.20
2022-08-22T15:33:18.841Z,37.60
2022-08-22T15:35:48.499Z,37.50
2022-08-22T15:38:29.899Z,38.00
2022-08-22T15:41:31.412Z,37.30
2022-08-22T15:44:15.069Z,37.80
2022-08-22T15:47:03.381Z,37.10
2022-08-22T15:49:35.678Z,36.80
2022-08-22T15:52:20.809Z,36.40
2022-08-22T15:55:21.922Z,36.20
2022-08-22T15:58:01.479Z,36.90
2022-08-22T16:00:33.860Z,35.90
2022-08-22T16:03:06.111Z,36.70
2022-08-22T16:05:54.589Z,36.70
2022-08-22T16:08:27.946Z,36.30
2022-08-22T16:11:30.852Z,36.30
2022-08-22T16:14:25.795Z,36.20
2022-08-22T16:17:01.657Z,36.60
2022-08-22T16:19:30.752Z,35.80
2022-08-22T16:22:16.822Z,34.50
2022-08-22T16:25:03.440Z,35.10
2022-08-22T16:27:31.930Z,35.00
2022-08-22T16:30:13.133Z,35.00
2022-08-22T16:32:51.634Z,34.90
2022-08-22T16:35:53.054Z,35.50
2022-08-22T16:38:26.253Z,36.20
2022-08-22T16:40:54.519Z,36.20
2022-08-22T16:43:23.041Z,36.40
2022-08-22T16:45:58.754Z,37.80
2022-08-22T16:48:35.872Z,37.40
2022-08-22T16:51:13.196Z,39.30
2022-08-22T16:54:05.209Z,38.20
2022-08-22T16:56:50.303Z,38.40
2022-08-22T16:59:38.186Z,38.50
2022-08-22T17:02:33.274Z,38.90
2022-08-22T17:05:11.928Z,39.00
2022-08-22T17:07:57.241Z,39.10
2022-08-22T17:10:47.086Z,39.20
2022-08-22T17:13:33.050Z,39.70
2022-08-22T17:16:25.539Z,39.50
2022-08-22T17:19:09.151Z,40.30
2022-08-22T17:21:51.760Z,39.40
2022-08-22T17:24:33.762Z,39.20
2022-08-22T17:27:08.705Z,39.60
2022-08-22T17:29:47.185Z,39.80
2022-08-22T17:32:19.917Z,39.90
2022-08-22T17:34:57.743Z,40.10
2022-08-22T17:37:38.559Z,40.50
2022-08-22T17:40:21.460Z,40.70
2022-08-22T17:43:02.576Z,40.90
2022-08-22T17:45:43.451Z,41.00
2022-08-22T17:48:16.600Z,41.10
2022-08-22T17:50:49.972Z,41.40
2022-08-22T17:53:29.968Z,41.70
2022-08-22T17:56:05.674Z,42.90
2022-08-22T17:58:43.887Z,42.50
2022-08-22T18:01:15.840Z,42.70
2022-08-22T18:03:50.333Z,42.90
2022-08-22T18:06:23.750Z,43.30
2022-08-22T18:11:48.211Z,44.20
2022-08-22T18:14:28.315Z,44.90
2022-08-22T18:17:00.678Z,46.20
2022-08-22T18:19:43.051Z,47.10
2022-08-22T18:22:19.850Z,46.40
2022-08-22T18:24:52.542Z,46.10
2022-08-22T18:27:34.153Z,46.10
2022-08-22T18:30:08.243Z,47.20
2022-08-22T18:32:43.187Z,47.40
2022-08-22T18:35:17.836Z,47.20
2022-08-22T18:38:01.399Z,46.60
2022-08-22T18:40:44.346Z,47.00
2022-08-22T18:43:23.799Z,50.10
2022-08-22T18:46:03.276Z,47.60
2022-08-22T18:48:49.551Z,47.00
2022-08-22T18:51:25.860Z,50.00
2022-08-22T18:54:15.833Z,48.20
2022-08-22T18:56:54.003Z,49.20
2022-08-22T18:59:42.528Z,49.50
2022-08-22T19:02:34.728Z,52.30
2022-08-22T19:05:39.900Z,49.10
2022-08-22T19:08:50.407Z,49.10
2022-08-22T19:11:36.885Z,49.10
2022-08-22T19:14:30.236Z,50.80
2022-08-22T19:17:29.707Z,50.50
2022-08-22T19:20:21.733Z,50.70
2022-08-22T19:22:51.168Z,50.50
2022-08-22T19:25:25.897Z,50.40
2022-08-22T19:28:25.163Z,51.30
2022-08-22T19:31:16.488Z,50.80
2022-08-22T19:33:49.092Z,53.10
2022-08-22T19:36:31.878Z,52.70
2022-08-22T19:39:03.355Z,52.40
2022-08-22T19:41:41.096Z,52.50
2022-08-22T19:44:13.596Z,52.60
2022-08-22T19:46:43.051Z,52.40
2022-08-22T19:49:28.134Z,53.30
2022-08-22T19:52:12.842Z,52.90
2022-08-22T19:54:50.302Z,54.50
2022-08-22T19:57:25.913Z,53.60
2022-08-22T20:00:01.621Z,54.00
2022-08-22T20:02:37.592Z,54.40
2022-08-22T20:05:27.560Z,54.20
2022-08-22T20:08:08.953Z,56.10
2022-08-22T20:10:49.509Z,55.90
2022-08-22T20:13:22.789Z,55.50
2022-08-22T20:16:13.349Z,55.50
2022-08-22T20:19:13.486Z,55.70
2022-08-22T20:21:48.808Z,55.80
2022-08-22T20:24:23.591Z,55.90
2022-08-22T20:27:14.525Z,56.20
2022-08-22T20:29:49.085Z,56.40
2022-08-22T20:32:22.980Z,56.60
2022-08-22T20:34:56.831Z,56.60
2022-08-22T20:37:45.379Z,56.60
2022-08-22T20:40:54.785Z,56.90
2022-08-22T20:43:31.253Z,56.80
2022-08-22T20:46:12.441Z,56.80
2022-08-22T20:48:45.562Z,56.70
2022-08-22T20:51:17.262Z,56.80
2022-08-22T20:53:51.999Z,56.90
2022-08-22T20:56:33.794Z,57.00
2022-08-22T20:59:13.420Z,57.30
2022-08-22T21:04:11.505Z,57.60
2022-08-22T21:06:39.372Z,58.20
2022-08-22T21:09:32.966Z,58.40
2022-08-22T21:12:02.913Z,60.40
2022-08-22T21:14:35.073Z,60.50
2022-08-22T21:17:19.153Z,60.20
2022-08-22T21:19:48.788Z,60.00
2022-08-22T21:22:19.399Z,60.10
2022-08-22T21:24:47.394Z,60.10
2022-08-22T21:27:21.850Z,60.20
2022-08-22T21:29:49.735Z,60.30
2022-08-22T21:32:30.788Z,60.50
2022-08-22T21:35:01.463Z,60.30
2022-08-22T21:37:38.396Z,60.60
2022-08-22T21:40:15.313Z,60.30
2022-08-22T21:42:46.966Z,60.50
2022-08-22T21:45:29.570Z,61.20
2022-08-22T21:47:58.034Z,61.10
2022-08-22T21:50:34.605Z,62.80
2022-08-22T21:53:06.080Z,62.50
2022-08-22T21:55:39.831Z,62.40
2022-08-22T21:58:12.908Z,62.30
2022-08-22T22:01:02.839Z,62.20
2022-08-22T22:03:37.108Z,62.30
2022-08-22T22:06:07.982Z,62.40
2022-08-22T22:08:35.935Z,62.40
2022-08-22T22:11:08.849Z,62.60
2022-08-22T22:16:07.523Z,62.70
2022-08-22T22:18:36.775Z,62.60
2022-08-22T22:21:05.666Z,62.50
2022-08-22T22:23:35.147Z,62.50
2022-08-22T22:26:05.962Z,64.00
2022-08-22T22:28:37.508Z,63.90
2022-08-22T22:33:37.911Z,63.90
2022-08-22T22:36:09.151Z,63.50
2022-08-22T22:38:38.990Z,63.80
2022-08-22T22:41:06.989Z,63.80
2022-08-22T23:01:12.069Z,66.40
2022-08-22T23:06:11.884Z,66.10
2022-08-22T23:08:39.850Z,66.80
2022-08-22T23:11:12.438Z,67.10
2022-08-22T23:13:42.858Z,65.80
2022-08-22T23:16:14.087Z,66.20
2022-08-22T23:18:42.692Z,66.50
2022-08-22T23:21:12.095Z,65.80
2022-08-22T23:23:42.123Z,65.70
2022-08-22T23:26:12.023Z,66.10
2022-08-22T23:28:40.703Z,66.60
2022-08-22T23:31:16.609Z,65.50
2022-08-22T23:33:45.581Z,66.60
2022-08-22T23:36:16.379Z,66.30
2022-08-22T23:38:45.385Z,66.80
2022-08-22T23:41:17.564Z,67.30
2022-08-22T23:43:47.434Z,67.30
2022-08-22T23:46:17.155Z,67.00
2022-08-22T23:48:45.154Z,66.90
2022-08-22T23:51:14.265Z,66.50
2022-08-22T23:53:43.718Z,66.60
2022-08-22T23:56:19.514Z,66.20
2022-08-22T23:58:49.755Z,66.80
